sensor_id;sensor_type;location;lat;lon;timestamp;pressure;altitude;pressure_sealevel;temperature;humidity
17230;BME280;8731;50.364;8.958;2023-02-12T00:03:19;102221.16;;;6.01;90.93
17230;BME280;8731;50.364;8.958;2023-02-12T00:07:41;102218.91;;;5.97;91.42
17230;BME280;8731;50.364;8.958;2023-02-12T00:12:04;102216.53;;;6.04;91.18
17230;BME280;8731;50.364;8.958;2023-02-12T00:16:28;102217.50;;;5.99;91.15
17230;BME280;8731;50.364;8.958;2023-02-12T00:20:51;102215.34;;;6.08;90.58
17230;BME280;8731;50.364;8.958;2023-02-12T00:25:13;102215.84;;;6.05;90.58
17230;BME280;8731;50.364;8.958;2023-02-12T00:29:36;102211.91;;;6.07;90.01
17230;BME280;8731;50.364;8.958;2023-02-12T00:34:00;102213.31;;;6.05;90.54
17230;BME280;8731;50.364;8.958;2023-02-12T00:38:22;102215.25;;;5.90;91.02
17230;BME280;8731;50.364;8.958;2023-02-12T00:42:45;102211.34;;;5.86;91.54
17230;BME280;8731;50.364;8.958;2023-02-12T00:47:07;102203.28;;;5.89;91.54
17230;BME280;8731;50.364;8.958;2023-02-12T00:51:30;102205.84;;;5.83;91.03
17230;BME280;8731;50.364;8.958;2023-02-12T00:55:53;102197.28;;;5.88;90.98
17230;BME280;8731;50.364;8.958;2023-02-12T01:00:15;102211.75;;;5.89;89.75
17230;BME280;8731;50.364;8.958;2023-02-12T01:04:38;102202.84;;;5.85;90.17
17230;BME280;8731;50.364;8.958;2023-02-12T01:09:01;102201.47;;;5.82;89.49
17230;BME280;8731;50.364;8.958;2023-02-12T01:13:24;102201.09;;;5.73;90.26
17230;BME280;8731;50.364;8.958;2023-02-12T01:17:47;102193.72;;;5.75;89.64
17230;BME280;8731;50.364;8.958;2023-02-12T01:22:12;102200.19;;;5.67;89.85
17230;BME280;8731;50.364;8.958;2023-02-12T01:26:38;102197.25;;;5.59;90.50
17230;BME280;8731;50.364;8.958;2023-02-12T01:31:00;102210.16;;;5.54;90.25
17230;BME280;8731;50.364;8.958;2023-02-12T01:35:24;102208.75;;;5.57;89.88
17230;BME280;8731;50.364;8.958;2023-02-12T01:39:46;102202.13;;;5.51;89.69
17230;BME280;8731;50.364;8.958;2023-02-12T01:44:26;102194.81;;;5.47;90.20
17230;BME280;8731;50.364;8.958;2023-02-12T01:48:50;102199.38;;;5.50;89.88
17230;BME280;8731;50.364;8.958;2023-02-12T01:53:14;102191.84;;;5.44;90.46
17230;BME280;8731;50.364;8.958;2023-02-12T01:57:41;102198.94;;;5.41;90.10
17230;BME280;8731;50.364;8.958;2023-02-12T02:02:08;102194.38;;;5.39;91.18
17230;BME280;8731;50.364;8.958;2023-02-12T02:06:33;102185.63;;;5.42;90.69
17230;BME280;8731;50.364;8.958;2023-02-12T02:10:58;102190.22;;;5.39;90.88
17230;BME280;8731;50.364;8.958;2023-02-12T02:15:43;102195.97;;;5.38;91.02
17230;BME280;8731;50.364;8.958;2023-02-12T02:25:35;102201.97;;;5.33;91.13
17230;BME280;8731;50.364;8.958;2023-02-12T02:30:22;102192.75;;;5.39;90.57
17230;BME280;8731;50.364;8.958;2023-02-12T02:35:03;102195.06;;;5.38;90.43
17230;BME280;8731;50.364;8.958;2023-02-12T02:39:36;102189.53;;;5.40;90.31
17230;BME280;8731;50.364;8.958;2023-02-12T02:44:09;102188.19;;;5.37;91.21
17230;BME280;8731;50.364;8.958;2023-02-12T02:48:39;102178.53;;;5.40;90.72
17230;BME280;8731;50.364;8.958;2023-02-12T02:53:07;102180.13;;;5.45;91.17
17230;BME280;8731;50.364;8.958;2023-02-12T02:57:37;102188.88;;;5.36;91.51
17230;BME280;8731;50.364;8.958;2023-02-12T03:02:07;102184.69;;;5.42;91.25
17230;BME280;8731;50.364;8.958;2023-02-12T03:06:37;102184.25;;;5.39;92.32
17230;BME280;8731;50.364;8.958;2023-02-12T03:11:09;102187.34;;;5.25;92.49
17230;BME280;8731;50.364;8.958;2023-02-12T03:15:38;102183.13;;;5.37;91.68
17230;BME280;8731;50.364;8.958;2023-02-12T03:20:07;102185.69;;;5.31;92.38
17230;BME280;8731;50.364;8.958;2023-02-12T03:24:40;102185.41;;;5.41;91.62
17230;BME280;8731;50.364;8.958;2023-02-12T03:29:06;102196.66;;;5.37;92.37
17230;BME280;8731;50.364;8.958;2023-02-12T03:33:36;102201.00;;;5.44;92.34
17230;BME280;8731;50.364;8.958;2023-02-12T03:38:16;102195.03;;;5.43;92.41
17230;BME280;8731;50.364;8.958;2023-02-12T03:42:47;102201.69;;;5.48;92.29
17230;BME280;8731;50.364;8.958;2023-02-12T03:47:21;102205.78;;;5.53;92.68
17230;BME280;8731;50.364;8.958;2023-02-12T03:51:48;102209.44;;;5.55;91.69
17230;BME280;8731;50.364;8.958;2023-02-12T03:56:12;102206.88;;;5.61;92.07
17230;BME280;8731;50.364;8.958;2023-02-12T04:00:40;102218.59;;;5.61;91.56
17230;BME280;8731;50.364;8.958;2023-02-12T04:05:04;102215.16;;;5.60;92.61
17230;BME280;8731;50.364;8.958;2023-02-12T04:09:27;102209.44;;;5.55;92.60
17230;BME280;8731;50.364;8.958;2023-02-12T04:14:00;102219.38;;;5.48;93.01
17230;BME280;8731;50.364;8.958;2023-02-12T04:18:39;102220.03;;;5.53;92.83
17230;BME280;8731;50.364;8.958;2023-02-12T04:23:11;102221.16;;;5.55;92.73
17230;BME280;8731;50.364;8.958;2023-02-12T04:27:48;102226.44;;;5.57;91.89
17230;BME280;8731;50.364;8.958;2023-02-12T04:32:18;102222.31;;;5.57;92.21
17230;BME280;8731;50.364;8.958;2023-02-12T04:36:55;102221.81;;;5.60;91.36
17230;BME280;8731;50.364;8.958;2023-02-12T04:41:23;102225.97;;;5.59;91.65
17230;BME280;8731;50.364;8.958;2023-02-12T04:45:46;102231.25;;;5.61;91.82
17230;BME280;8731;50.364;8.958;2023-02-12T04:50:09;102235.13;;;5.64;91.58
17230;BME280;8731;50.364;8.958;2023-02-12T04:54:33;102223.19;;;5.63;92.25
17230;BME280;8731;50.364;8.958;2023-02-12T04:58:55;102234.63;;;5.67;91.63
17230;BME280;8731;50.364;8.958;2023-02-12T05:03:18;102238.56;;;5.70;92.25
17230;BME280;8731;50.364;8.958;2023-02-12T05:07:40;102229.38;;;5.71;91.73
17230;BME280;8731;50.364;8.958;2023-02-12T05:12:04;102229.09;;;5.75;91.70
17230;BME280;8731;50.364;8.958;2023-02-12T05:16:26;102237.81;;;5.77;91.77
17230;BME280;8731;50.364;8.958;2023-02-12T05:20:54;102231.38;;;5.79;92.14
17230;BME280;8731;50.364;8.958;2023-02-12T05:25:17;102238.03;;;5.78;92.51
17230;BME280;8731;50.364;8.958;2023-02-12T05:29:40;102239.22;;;5.75;92.50
17230;BME280;8731;50.364;8.958;2023-02-12T05:34:03;102247.22;;;5.78;92.57
17230;BME280;8731;50.364;8.958;2023-02-12T05:38:26;102244.28;;;5.75;92.06
17230;BME280;8731;50.364;8.958;2023-02-12T05:42:48;102245.19;;;5.75;92.25
17230;BME280;8731;50.364;8.958;2023-02-12T05:47:12;102251.38;;;5.77;92.41
17230;BME280;8731;50.364;8.958;2023-02-12T05:51:34;102251.38;;;5.77;92.37
17230;BME280;8731;50.364;8.958;2023-02-12T05:56:11;102248.38;;;5.80;92.38
17230;BME280;8731;50.364;8.958;2023-02-12T06:00:35;102248.38;;;5.80;91.76
17230;BME280;8731;50.364;8.958;2023-02-12T06:04:59;102249.81;;;5.72;92.86
17230;BME280;8731;50.364;8.958;2023-02-12T06:09:22;102254.59;;;5.76;92.80
17230;BME280;8731;50.364;8.958;2023-02-12T06:13:45;102250.69;;;5.78;92.19
17230;BME280;8731;50.364;8.958;2023-02-12T06:18:07;102245.84;;;5.80;92.71
17230;BME280;8731;50.364;8.958;2023-02-12T06:22:31;102252.03;;;5.82;92.26
17230;BME280;8731;50.364;8.958;2023-02-12T06:26:53;102251.59;;;5.79;92.72
17230;BME280;8731;50.364;8.958;2023-02-12T06:31:20;102259.44;;;5.75;93.53
17230;BME280;8731;50.364;8.958;2023-02-12T06:35:44;102260.13;;;5.74;93.60
17230;BME280;8731;50.364;8.958;2023-02-12T06:40:08;102273.25;;;5.66;95.13
17230;BME280;8731;50.364;8.958;2023-02-12T06:44:31;102283.81;;;5.63;93.72
17230;BME280;8731;50.364;8.958;2023-02-12T06:48:53;102283.81;;;5.69;93.89
17230;BME280;8731;50.364;8.958;2023-02-12T06:53:17;102284.25;;;5.66;94.16
17230;BME280;8731;50.364;8.958;2023-02-12T06:57:40;102288.19;;;5.70;93.66
17230;BME280;8731;50.364;8.958;2023-02-12T07:02:03;102296.69;;;5.70;93.90
17230;BME280;8731;50.364;8.958;2023-02-12T07:06:26;102292.97;;;5.74;94.09
17230;BME280;8731;50.364;8.958;2023-02-12T07:10:50;102300.75;;;5.81;93.38
17230;BME280;8731;50.364;8.958;2023-02-12T07:15:14;102306.94;;;5.83;93.57
17230;BME280;8731;50.364;8.958;2023-02-12T07:19:36;102313.34;;;5.86;93.83
17230;BME280;8731;50.364;8.958;2023-02-12T07:23:59;102314.28;;;5.87;93.24
17230;BME280;8731;50.364;8.958;2023-02-12T07:28:21;102316.78;;;5.87;94.12
17230;BME280;8731;50.364;8.958;2023-02-12T07:32:45;102315.41;;;5.89;93.89
17230;BME280;8731;50.364;8.958;2023-02-12T07:37:07;102323.94;;;5.90;95.00
17230;BME280;8731;50.364;8.958;2023-02-12T07:41:31;102318.19;;;5.96;95.03
17230;BME280;8731;50.364;8.958;2023-02-12T07:45:55;102321.84;;;5.98;94.73
17230;BME280;8731;50.364;8.958;2023-02-12T07:50:26;102336.75;;;6.02;94.90
17230;BME280;8731;50.364;8.958;2023-02-12T07:54:49;102330.31;;;6.04;95.15
17230;BME280;8731;50.364;8.958;2023-02-12T07:59:13;102330.97;;;6.09;95.46
17230;BME280;8731;50.364;8.958;2023-02-12T08:03:37;102338.31;;;6.13;95.61
17230;BME280;8731;50.364;8.958;2023-02-12T08:08:01;102339.69;;;6.17;96.39
17230;BME280;8731;50.364;8.958;2023-02-12T08:12:23;102343.78;;;6.22;96.64
17230;BME280;8731;50.364;8.958;2023-02-12T08:16:47;102340.31;;;6.27;95.78
17230;BME280;8731;50.364;8.958;2023-02-12T08:21:12;102344.63;;;6.33;95.95
17230;BME280;8731;50.364;8.958;2023-02-12T08:25:37;102343.91;;;6.40;96.38
17230;BME280;8731;50.364;8.958;2023-02-12T08:29:59;102351.50;;;6.40;96.63
17230;BME280;8731;50.364;8.958;2023-02-12T08:34:24;102345.06;;;6.42;97.52
17230;BME280;8731;50.364;8.958;2023-02-12T08:38:47;102356.03;;;6.48;98.30
17230;BME280;8731;50.364;8.958;2023-02-12T08:43:11;102352.13;;;6.50;99.08
17230;BME280;8731;50.364;8.958;2023-02-12T08:47:33;102352.28;;;6.57;98.67
17230;BME280;8731;50.364;8.958;2023-02-12T08:51:57;102353.69;;;6.55;98.57
17230;BME280;8731;50.364;8.958;2023-02-12T08:56:21;102353.19;;;6.63;98.14
17230;BME280;8731;50.364;8.958;2023-02-12T09:00:46;102358.63;;;6.72;97.76
17230;BME280;8731;50.364;8.958;2023-02-12T09:05:08;102354.75;;;6.68;98.31
17230;BME280;8731;50.364;8.958;2023-02-12T09:09:31;102354.59;;;6.85;97.75
17230;BME280;8731;50.364;8.958;2023-02-12T09:13:53;102362.28;;;7.03;98.18
17230;BME280;8731;50.364;8.958;2023-02-12T09:18:16;102365.22;;;7.12;97.57
17230;BME280;8731;50.364;8.958;2023-02-12T09:22:39;102368.69;;;7.31;97.75
17230;BME280;8731;50.364;8.958;2023-02-12T09:27:01;102364.44;;;7.43;98.69
17230;BME280;8731;50.364;8.958;2023-02-12T09:31:25;102358.44;;;7.66;99.09
17230;BME280;8731;50.364;8.958;2023-02-12T09:35:50;102360.81;;;7.77;98.49
17230;BME280;8731;50.364;8.958;2023-02-12T09:40:18;102355.06;;;7.96;98.81
17230;BME280;8731;50.364;8.958;2023-02-12T09:44:46;102357.59;;;8.15;98.57
17230;BME280;8731;50.364;8.958;2023-02-12T09:49:18;102350.97;;;8.10;98.64
17230;BME280;8731;50.364;8.958;2023-02-12T09:54:01;102354.47;;;8.41;98.13
17230;BME280;8731;50.364;8.958;2023-02-12T09:58:30;102359.81;;;8.55;97.68
17230;BME280;8731;50.364;8.958;2023-02-12T10:02:59;102351.69;;;8.71;96.11
17230;BME280;8731;50.364;8.958;2023-02-12T10:07:37;102353.78;;;8.86;94.97
17230;BME280;8731;50.364;8.958;2023-02-12T10:12:18;102356.84;;;9.09;93.88
17230;BME280;8731;50.364;8.958;2023-02-12T10:16:52;102348.41;;;9.41;92.58
17230;BME280;8731;50.364;8.958;2023-02-12T10:21:30;102335.50;;;9.97;92.14
17230;BME280;8731;50.364;8.958;2023-02-12T10:26:08;102338.66;;;10.61;90.66
17230;BME280;8731;50.364;8.958;2023-02-12T10:30:43;102342.97;;;10.35;89.23
17230;BME280;8731;50.364;8.958;2023-02-12T10:35:13;102339.66;;;10.69;88.77
17230;BME280;8731;50.364;8.958;2023-02-12T10:39:40;102331.53;;;11.05;88.03
17230;BME280;8731;50.364;8.958;2023-02-12T10:44:08;102330.94;;;10.94;86.56
17230;BME280;8731;50.364;8.958;2023-02-12T10:48:37;102319.13;;;11.35;86.50
17230;BME280;8731;50.364;8.958;2023-02-12T10:53:02;102312.34;;;11.63;85.67
17230;BME280;8731;50.364;8.958;2023-02-12T10:57:26;102302.88;;;11.62;84.44
17230;BME280;8731;50.364;8.958;2023-02-12T11:01:50;102303.41;;;11.59;84.01
17230;BME280;8731;50.364;8.958;2023-02-12T11:06:18;102298.03;;;11.36;82.81
17230;BME280;8731;50.364;8.958;2023-02-12T11:10:42;102296.59;;;11.87;83.17
17230;BME280;8731;50.364;8.958;2023-02-12T11:15:11;102294.47;;;12.18;82.28
17230;BME280;8731;50.364;8.958;2023-02-12T11:19:36;102281.69;;;12.47;81.18
17230;BME280;8731;50.364;8.958;2023-02-12T11:24:20;102277.84;;;12.29;78.86
17230;BME280;8731;50.364;8.958;2023-02-12T11:28:53;102267.06;;;12.88;78.67
17230;BME280;8731;50.364;8.958;2023-02-12T11:33:29;102266.19;;;13.39;78.14
17230;BME280;8731;50.364;8.958;2023-02-12T11:37:55;102252.88;;;13.95;75.50
17230;BME280;8731;50.364;8.958;2023-02-12T11:42:23;102245.56;;;14.82;75.13
17230;BME280;8731;50.364;8.958;2023-02-12T11:46:48;102252.94;;;15.26;74.19
17230;BME280;8731;50.364;8.958;2023-02-12T11:51:19;102242.59;;;14.86;71.64
17230;BME280;8731;50.364;8.958;2023-02-12T11:55:52;102242.44;;;15.16;71.56
17230;BME280;8731;50.364;8.958;2023-02-12T12:00:25;102251.97;;;15.17;70.98
17230;BME280;8731;50.364;8.958;2023-02-12T12:04:53;102247.91;;;15.03;72.09
17230;BME280;8731;50.364;8.958;2023-02-12T12:09:23;102247.91;;;14.49;71.31
17230;BME280;8731;50.364;8.958;2023-02-12T12:13:51;102250.72;;;13.91;73.54
17230;BME280;8731;50.364;8.958;2023-02-12T12:18:25;102241.69;;;13.71;73.94
17230;BME280;8731;50.364;8.958;2023-02-12T12:23:14;102245.31;;;13.43;74.17
17230;BME280;8731;50.364;8.958;2023-02-12T12:27:53;102241.38;;;13.24;75.15
17230;BME280;8731;50.364;8.958;2023-02-12T12:32:28;102248.06;;;12.86;75.36
17230;BME280;8731;50.364;8.958;2023-02-12T12:37:08;102246.31;;;12.57;76.54
17230;BME280;8731;50.364;8.958;2023-02-12T12:41:59;102240.28;;;12.56;77.23
17230;BME280;8731;50.364;8.958;2023-02-12T12:46:57;102239.38;;;12.35;77.67
17230;BME280;8731;50.364;8.958;2023-02-12T12:51:40;102233.53;;;11.93;78.74
17230;BME280;8731;50.364;8.958;2023-02-12T12:56:39;102232.75;;;11.80;78.63
17230;BME280;8731;50.364;8.958;2023-02-12T13:01:22;102228.72;;;11.75;79.74
17230;BME280;8731;50.364;8.958;2023-02-12T13:06:26;102230.34;;;11.60;80.63
17230;BME280;8731;50.364;8.958;2023-02-12T13:11:07;102233.22;;;11.56;81.23
17230;BME280;8731;50.364;8.958;2023-02-12T13:15:49;102215.19;;;11.54;81.19
17230;BME280;8731;50.364;8.958;2023-02-12T13:20:20;102219.16;;;11.45;81.48
17230;BME280;8731;50.364;8.958;2023-02-12T13:24:56;102217.53;;;11.46;81.72
17230;BME280;8731;50.364;8.958;2023-02-12T13:29:31;102206.44;;;11.52;81.25
17230;BME280;8731;50.364;8.958;2023-02-12T13:34:01;102202.78;;;11.50;81.54
17230;BME280;8731;50.364;8.958;2023-02-12T13:38:29;102205.50;;;11.45;82.19
17230;BME280;8731;50.364;8.958;2023-02-12T13:43:03;102208.09;;;11.11;82.54
17230;BME280;8731;50.364;8.958;2023-02-12T13:47:41;102206.97;;;11.01;83.28
17230;BME280;8731;50.364;8.958;2023-02-12T13:52:20;102206.69;;;11.13;83.23
17230;BME280;8731;50.364;8.958;2023-02-12T13:56:50;102210.19;;;11.27;82.19
17230;BME280;8731;50.364;8.958;2023-02-12T14:01:38;102202.69;;;11.22;82.85
17230;BME280;8731;50.364;8.958;2023-02-12T14:06:12;102200.13;;;11.15;83.05
17230;BME280;8731;50.364;8.958;2023-02-12T14:10:40;102200.72;;;11.26;82.37
17230;BME280;8731;50.364;8.958;2023-02-12T14:15:05;102203.97;;;11.25;82.67
17230;BME280;8731;50.364;8.958;2023-02-12T14:19:38;102201.78;;;11.21;82.12
17230;BME280;8731;50.364;8.958;2023-02-12T14:24:50;102197.41;;;11.20;82.89
17230;BME280;8731;50.364;8.958;2023-02-12T14:29:18;102193.16;;;11.06;82.81
17230;BME280;8731;50.364;8.958;2023-02-12T14:33:41;102192.88;;;11.25;82.90
17230;BME280;8731;50.364;8.958;2023-02-12T14:43:30;102193.03;;;11.19;82.79
17230;BME280;8731;50.364;8.958;2023-02-12T14:48:44;102191.06;;;11.24;82.56
17230;BME280;8731;50.364;8.958;2023-02-12T14:53:20;102190.13;;;11.23;82.68
17230;BME280;8731;50.364;8.958;2023-02-12T14:57:48;102184.28;;;11.17;82.53
17230;BME280;8731;50.364;8.958;2023-02-12T15:02:16;102182.31;;;10.88;83.18
17230;BME280;8731;50.364;8.958;2023-02-12T15:06:50;102184.97;;;11.09;82.83
17230;BME280;8731;50.364;8.958;2023-02-12T15:11:22;102186.44;;;11.07;83.38
17230;BME280;8731;50.364;8.958;2023-02-12T15:15:54;102192.09;;;11.12;82.49
17230;BME280;8731;50.364;8.958;2023-02-12T15:20:23;102186.28;;;11.13;82.81
17230;BME280;8731;50.364;8.958;2023-02-12T15:24:52;102190.25;;;11.11;82.82
17230;BME280;8731;50.364;8.958;2023-02-12T15:29:18;102183.69;;;11.05;82.87
17230;BME280;8731;50.364;8.958;2023-02-12T15:33:46;102177.84;;;10.99;83.16
17230;BME280;8731;50.364;8.958;2023-02-12T15:38:17;102175.66;;;10.95;83.15
17230;BME280;8731;50.364;8.958;2023-02-12T15:42:53;102172.00;;;10.93;83.82
17230;BME280;8731;50.364;8.958;2023-02-12T15:47:18;102170.84;;;10.84;83.62
17230;BME280;8731;50.364;8.958;2023-02-12T15:51:44;102167.75;;;10.87;83.60
17230;BME280;8731;50.364;8.958;2023-02-12T15:56:11;102173.94;;;10.82;83.51
17230;BME280;8731;50.364;8.958;2023-02-12T16:00:40;102173.38;;;10.77;83.40
17230;BME280;8731;50.364;8.958;2023-02-12T16:05:06;102161.72;;;10.72;83.89
17230;BME280;8731;50.364;8.958;2023-02-12T16:09:33;102156.25;;;10.76;83.33
17230;BME280;8731;50.364;8.958;2023-02-12T16:13:58;102161.97;;;10.54;84.01
17230;BME280;8731;50.364;8.958;2023-02-12T16:18:25;102168.41;;;10.37;85.65
17230;BME280;8731;50.364;8.958;2023-02-12T16:22:49;102171.63;;;10.29;85.77
17230;BME280;8731;50.364;8.958;2023-02-12T16:27:17;102177.72;;;9.97;86.70
17230;BME280;8731;50.364;8.958;2023-02-12T16:31:52;102175.19;;;9.97;87.05
17230;BME280;8731;50.364;8.958;2023-02-12T16:36:29;102181.03;;;9.83;87.44
17230;BME280;8731;50.364;8.958;2023-02-12T16:41:14;102183.00;;;9.59;88.06
17230;BME280;8731;50.364;8.958;2023-02-12T16:45:43;102192.59;;;9.74;87.78
17230;BME280;8731;50.364;8.958;2023-02-12T16:50:14;102191.94;;;9.82;86.51
17230;BME280;8731;50.364;8.958;2023-02-12T16:54:38;102199.88;;;9.59;87.30
17230;BME280;8731;50.364;8.958;2023-02-12T16:59:00;102195.44;;;9.50;88.35
17230;BME280;8731;50.364;8.958;2023-02-12T17:03:24;102202.00;;;9.36;88.50
17230;BME280;8731;50.364;8.958;2023-02-12T17:07:47;102207.75;;;9.67;88.19
17230;BME280;8731;50.364;8.958;2023-02-12T17:12:12;102212.94;;;9.74;86.98
17230;BME280;8731;50.364;8.958;2023-02-12T17:16:34;102212.66;;;9.66;86.52
17230;BME280;8731;50.364;8.958;2023-02-12T17:20:58;102215.00;;;9.64;87.03
17230;BME280;8731;50.364;8.958;2023-02-12T17:25:23;102218.91;;;9.55;86.28
17230;BME280;8731;50.364;8.958;2023-02-12T17:29:47;102223.28;;;9.56;86.52
17230;BME280;8731;50.364;8.958;2023-02-12T17:34:09;102226.38;;;9.41;86.07
17230;BME280;8731;50.364;8.958;2023-02-12T17:38:32;102224.22;;;9.44;86.61
17230;BME280;8731;50.364;8.958;2023-02-12T17:42:55;102230.84;;;9.49;86.78
17230;BME280;8731;50.364;8.958;2023-02-12T17:47:19;102226.69;;;9.37;87.78
17230;BME280;8731;50.364;8.958;2023-02-12T17:51:41;102225.72;;;9.29;88.26
17230;BME280;8731;50.364;8.958;2023-02-12T17:56:08;102232.09;;;9.33;87.79
17230;BME280;8731;50.364;8.958;2023-02-12T18:00:30;102230.06;;;9.30;87.42
17230;BME280;8731;50.364;8.958;2023-02-12T18:04:54;102226.31;;;9.21;87.07
17230;BME280;8731;50.364;8.958;2023-02-12T18:09:16;102230.47;;;9.20;86.83
17230;BME280;8731;50.364;8.958;2023-02-12T18:13:38;102226.69;;;9.37;87.04
17230;BME280;8731;50.364;8.958;2023-02-12T18:18:01;102229.28;;;9.24;87.26
17230;BME280;8731;50.364;8.958;2023-02-12T18:22:25;102225.13;;;9.25;87.48
17230;BME280;8731;50.364;8.958;2023-02-12T18:26:48;102224.59;;;9.27;87.55
17230;BME280;8731;50.364;8.958;2023-02-12T18:31:11;102225.13;;;9.25;87.76
17230;BME280;8731;50.364;8.958;2023-02-12T18:35:33;102227.75;;;9.19;88.21
17230;BME280;8731;50.364;8.958;2023-02-12T18:39:57;102230.00;;;9.23;87.65
17230;BME280;8731;50.364;8.958;2023-02-12T18:44:19;102237.00;;;9.18;88.27
17230;BME280;8731;50.364;8.958;2023-02-12T18:48:42;102224.06;;;9.30;87.37
17230;BME280;8731;50.364;8.958;2023-02-12T18:53:05;102230.19;;;9.25;87.43
17230;BME280;8731;50.364;8.958;2023-02-12T18:57:29;102234.38;;;9.24;87.34
17230;BME280;8731;50.364;8.958;2023-02-12T19:01:51;102226.41;;;9.28;87.19
17230;BME280;8731;50.364;8.958;2023-02-12T19:06:13;102231.50;;;9.28;87.94
17230;BME280;8731;50.364;8.958;2023-02-12T19:10:37;102231.00;;;9.31;87.49
17230;BME280;8731;50.364;8.958;2023-02-12T19:15:01;102234.56;;;9.26;87.47
17230;BME280;8731;50.364;8.958;2023-02-12T19:19:24;102229.56;;;9.33;86.89
17230;BME280;8731;50.364;8.958;2023-02-12T19:23:47;102231.19;;;9.32;87.23
17230;BME280;8731;50.364;8.958;2023-02-12T19:28:11;102235.03;;;9.36;86.66
17230;BME280;8731;50.364;8.958;2023-02-12T19:32:36;102231.69;;;9.30;86.81
17230;BME280;8731;50.364;8.958;2023-02-12T19:36:58;102239.53;;;9.31;86.75
17230;BME280;8731;50.364;8.958;2023-02-12T19:41:22;102228.75;;;9.27;87.20
17230;BME280;8731;50.364;8.958;2023-02-12T19:45:46;102231.00;;;9.31;87.29
17230;BME280;8731;50.364;8.958;2023-02-12T19:50:09;102237.50;;;9.29;86.60
17230;BME280;8731;50.364;8.958;2023-02-12T19:54:32;102233.34;;;9.29;87.06
17230;BME280;8731;50.364;8.958;2023-02-12T19:58:55;102224.41;;;9.26;86.97
17230;BME280;8731;50.364;8.958;2023-02-12T20:03:17;102223.88;;;9.15;87.33
17230;BME280;8731;50.364;8.958;2023-02-12T20:07:43;102225.13;;;9.25;87.34
17230;BME280;8731;50.364;8.958;2023-02-12T20:12:05;102224.19;;;9.24;87.10
17230;BME280;8731;50.364;8.958;2023-02-12T20:16:29;102224.91;;;9.23;87.18
17230;BME280;8731;50.364;8.958;2023-02-12T20:20:53;102221.44;;;9.22;87.47
17230;BME280;8731;50.364;8.958;2023-02-12T20:25:18;102231.59;;;9.22;87.08
17230;BME280;8731;50.364;8.958;2023-02-12T20:29:40;102235.38;;;9.19;87.80
17230;BME280;8731;50.364;8.958;2023-02-12T20:34:05;102236.19;;;9.12;87.70
17230;BME280;8731;50.364;8.958;2023-02-12T20:38:29;102231.72;;;9.17;87.60
17230;BME280;8731;50.364;8.958;2023-02-12T20:42:52;102235.56;;;9.20;87.41
17230;BME280;8731;50.364;8.958;2023-02-12T20:47:14;102243.00;;;9.19;87.31
17230;BME280;8731;50.364;8.958;2023-02-12T20:51:36;102243.63;;;9.11;88.46
17230;BME280;8731;50.364;8.958;2023-02-12T20:56:00;102245.69;;;9.01;88.95
17230;BME280;8731;50.364;8.958;2023-02-12T21:00:24;102245.47;;;8.99;89.40
17230;BME280;8731;50.364;8.958;2023-02-12T21:04:48;102250.84;;;8.70;90.52
17230;BME280;8731;50.364;8.958;2023-02-12T21:09:12;102248.63;;;8.78;90.98
17230;BME280;8731;50.364;8.958;2023-02-12T21:13:35;102254.94;;;9.00;90.17
17230;BME280;8731;50.364;8.958;2023-02-12T21:17:59;102253.50;;;9.02;89.28
17230;BME280;8731;50.364;8.958;2023-02-12T21:22:21;102257.66;;;8.89;90.08
17230;BME280;8731;50.364;8.958;2023-02-12T21:26:46;102264.44;;;8.70;91.04
17230;BME280;8731;50.364;8.958;2023-02-12T21:31:11;102265.56;;;8.59;93.03
17230;BME280;8731;50.364;8.958;2023-02-12T21:35:36;102264.97;;;8.68;92.88
17230;BME280;8731;50.364;8.958;2023-02-12T21:39:58;102259.19;;;8.81;91.55
17230;BME280;8731;50.364;8.958;2023-02-12T21:44:22;102279.19;;;8.85;91.02
17230;BME280;8731;50.364;8.958;2023-02-12T21:48:45;102273.50;;;8.81;91.36
17230;BME280;8731;50.364;8.958;2023-02-12T21:53:09;102273.69;;;8.70;91.84
17230;BME280;8731;50.364;8.958;2023-02-12T21:57:31;102272.59;;;8.80;91.49
17230;BME280;8731;50.364;8.958;2023-02-12T22:01:54;102275.66;;;8.78;91.54
17230;BME280;8731;50.364;8.958;2023-02-12T22:06:18;102273.91;;;8.84;90.86
17230;BME280;8731;50.364;8.958;2023-02-12T22:10:43;102281.13;;;8.81;91.00
17230;BME280;8731;50.364;8.958;2023-02-12T22:15:06;102269.88;;;8.79;90.34
17230;BME280;8731;50.364;8.958;2023-02-12T22:19:29;102275.22;;;8.75;90.77
17230;BME280;8731;50.364;8.958;2023-02-12T22:23:52;102269.03;;;8.60;92.48
17230;BME280;8731;50.364;8.958;2023-02-12T22:28:16;102269.84;;;8.66;91.67
17230;BME280;8731;50.364;8.958;2023-02-12T22:32:39;102266.25;;;8.46;93.52
17230;BME280;8731;50.364;8.958;2023-02-12T22:37:01;102264.66;;;8.59;91.64
17230;BME280;8731;50.364;8.958;2023-02-12T22:41:23;102269.13;;;8.67;91.54
17230;BME280;8731;50.364;8.958;2023-02-12T22:45:48;102275.53;;;8.71;91.66
17230;BME280;8731;50.364;8.958;2023-02-12T22:50:10;102273.25;;;8.41;92.97
17230;BME280;8731;50.364;8.958;2023-02-12T22:54:32;102267.78;;;8.51;92.68
17230;BME280;8731;50.364;8.958;2023-02-12T22:58:55;102272.06;;;8.57;92.63
17230;BME280;8731;50.364;8.958;2023-02-12T23:03:20;102288.63;;;8.61;92.12
17230;BME280;8731;50.364;8.958;2023-02-12T23:07:42;102283.66;;;8.55;90.43
17230;BME280;8731;50.364;8.958;2023-02-12T23:12:05;102282.81;;;8.49;91.23
17230;BME280;8731;50.364;8.958;2023-02-12T23:16:28;102285.22;;;8.42;91.61
17230;BME280;8731;50.364;8.958;2023-02-12T23:20:52;102281.88;;;8.36;92.57
17230;BME280;8731;50.364;8.958;2023-02-12T23:25:14;102290.34;;;8.55;91.17
17230;BME280;8731;50.364;8.958;2023-02-12T23:29:37;102286.75;;;8.35;91.27
17230;BME280;8731;50.364;8.958;2023-02-12T23:33:59;102288.25;;;8.09;94.49
17230;BME280;8731;50.364;8.958;2023-02-12T23:38:23;102273.41;;;8.30;91.62
17230;BME280;8731;50.364;8.958;2023-02-12T23:42:45;102270.94;;;8.24;93.02
17230;BME280;8731;50.364;8.958;2023-02-12T23:47:07;102279.25;;;8.23;93.24
17230;BME280;8731;50.364;8.958;2023-02-12T23:51:30;102277.50;;;8.17;92.94
17230;BME280;8731;50.364;8.958;2023-02-12T23:55:54;102275.44;;;8.32;91.26
